Time;durP1;ratioP1;P1;durP2;ratioP2;P2;SDS_P1;SDS_P2;PMS_P1;PMS_P2;Temp;Humidity;BMP_temperature;BMP_pressure;BME280_temperature;BME280_humidity;BME280_pressure;Samples;Min_cycle;Max_cycle;Signal;HPM_P1;HPM_P2
2021/12/04 00:02:22;;;;;;;21.27;9.60;;;;;;;9.73;93.12;99375.34;7389114;19;20018;-71
2021/12/04 00:04:52;;;;;;;23.33;10.50;;;;;;;9.71;93.31;99372.91;7390095;19;20523;-69
2021/12/04 00:07:21;;;;;;;21.63;9.75;;;;;;;9.73;93.67;99370.91;7390368;19;20041;-68
2021/12/04 00:09:50;;;;;;;25.55;11.70;;;;;;;9.75;93.44;99370.75;7388502;19;20036;-68
2021/12/04 00:12:18;;;;;;;21.00;11.05;;;;;;;9.77;93.87;99369.53;7391528;19;20122;-68
2021/12/04 00:14:45;;;;;;;25.75;10.68;;;;;;;9.75;93.63;99368.13;7388564;19;20007;-70
2021/12/04 00:17:12;;;;;;;21.73;10.48;;;;;;;9.72;93.18;99363.22;7392337;19;20102;-70
2021/12/04 00:19:39;;;;;;;23.17;11.02;;;;;;;9.69;93.50;99351.28;7390736;19;20045;-68
2021/12/04 00:22:06;;;;;;;22.52;10.30;;;;;;;9.67;93.50;99353.25;7391359;19;20290;-68
2021/12/04 00:24:34;;;;;;;23.08;9.82;;;;;;;9.63;93.36;99356.44;7388827;19;20021;-68
2021/12/04 00:27:01;;;;;;;24.23;10.13;;;;;;;9.58;93.22;99349.13;7390582;19;20014;-69
2021/12/04 00:29:28;;;;;;;23.58;10.60;;;;;;;9.58;93.31;99350.91;7389631;19;20083;-69
2021/12/04 00:32:11;;;;;;;25.27;10.55;;;;;;;9.59;93.42;99349.94;7392514;19;20025;-68
2021/12/04 00:34:49;;;;;;;25.40;11.60;;;;;;;9.60;93.73;99339.22;7388314;19;20102;-72
2021/12/04 00:51:04;;;;;;;28.60;12.18;;;;;;;9.55;93.39;99348.69;7391973;19;20007;-70
2021/12/04 00:53:31;;;;;;;30.05;13.77;;;;;;;9.52;93.43;99347.22;7390115;19;20038;-67
2021/12/04 00:55:59;;;;;;;32.15;13.88;;;;;;;9.52;93.26;99346.41;7388075;19;20427;-70
2021/12/04 00:58:29;;;;;;;33.22;12.77;;;;;;;9.53;93.42;99340.16;7393133;19;20734;-69
2021/12/04 01:00:56;;;;;;;30.80;13.68;;;;;;;9.54;93.46;99337.34;7390306;19;20407;-72
2021/12/04 01:03:24;;;;;;;28.88;13.07;;;;;;;9.57;93.52;99341.41;7393736;19;20007;-69
2021/12/04 01:05:51;;;;;;;28.25;13.80;;;;;;;9.57;93.93;99347.47;7392222;19;20024;-67
2021/12/04 01:08:18;;;;;;;26.30;12.50;;;;;;;9.61;93.88;99342.66;7395765;19;20359;-69
2021/12/04 01:10:45;;;;;;;29.08;13.10;;;;;;;9.62;93.72;99339.88;7399034;19;20007;-69
2021/12/04 01:13:12;;;;;;;31.33;12.93;;;;;;;9.65;93.90;99344.75;7396760;19;20483;-69
2021/12/04 01:15:42;;;;;;;27.05;11.65;;;;;;;9.66;94.01;99358.69;7397739;19;20078;-68
2021/12/04 01:18:10;;;;;;;26.40;11.77;;;;;;;9.67;93.98;99360.31;7397934;19;20015;-68
2021/12/04 01:20:38;;;;;;;30.83;12.90;;;;;;;9.68;93.96;99361.97;7394358;19;20351;-69
2021/12/04 01:23:06;;;;;;;32.05;13.00;;;;;;;9.69;94.13;99364.41;7398518;19;20081;-70
2021/12/04 01:25:35;;;;;;;48.50;21.52;;;;;;;9.72;94.16;99363.22;7392608;19;20410;-70
2021/12/04 01:28:04;;;;;;;42.72;16.90;;;;;;;9.75;94.36;99368.13;7394699;19;20043;-70
2021/12/04 01:30:32;;;;;;;33.47;13.18;;;;;;;9.78;94.23;99368.56;7396865;19;20051;-67
2021/12/04 01:32:59;;;;;;;128.57;18.80;;;;;;;9.82;94.59;99369.81;7396227;19;20025;-70
2021/12/04 01:35:26;;;;;;;31.95;12.38;;;;;;;9.87;94.86;99354.31;7391666;19;19999;-70
2021/12/04 01:37:54;;;;;;;159.73;20.25;;;;;;;9.92;95.17;99351.13;7396252;19;20026;-68
2021/12/04 01:40:22;;;;;;;41.45;14.50;;;;;;;9.95;95.42;99360.47;7398057;19;20802;-69
2021/12/04 01:42:49;;;;;;;118.13;17.33;;;;;;;9.93;95.29;99358.00;7393649;19;20111;-68
2021/12/04 01:45:17;;;;;;;40.25;13.98;;;;;;;9.93;95.43;99352.75;7397141;19;20529;-69
2021/12/04 01:47:45;;;;;;;221.90;20.95;;;;;;;9.93;95.74;99360.63;7398984;19;20003;-69
2021/12/04 01:50:12;;;;;;;31.83;11.60;;;;;;;9.97;96.40;99355.81;7395510;19;20021;-68
2021/12/04 01:52:39;;;;;;;35.40;12.63;;;;;;;9.93;95.62;99351.94;7392311;19;20011;-67
2021/12/04 01:55:08;;;;;;;37.17;14.05;;;;;;;9.88;95.01;99342.81;7396283;19;20082;-68
2021/12/04 01:57:35;;;;;;;43.47;11.95;;;;;;;9.87;94.80;99342.97;7396681;19;20024;-69
2021/12/04 02:00:05;;;;;;;109.72;15.68;;;;;;;9.86;94.82;99338.72;7393429;19;20021;-69
2021/12/04 02:02:32;;;;;;;38.13;13.40;;;;;;;9.86;94.90;99344.78;7396831;19;20019;-67
2021/12/04 02:04:59;;;;;;;51.38;11.90;;;;;;;9.86;95.04;99334.28;7394718;19;20074;-70
2021/12/04 02:07:26;;;;;;;144.07;14.13;;;;;;;9.84;95.13;99332.84;7392016;19;20014;-69
2021/12/04 02:09:53;;;;;;;40.13;11.00;;;;;;;9.78;94.82;99330.97;7395157;19;20093;-68
2021/12/04 02:12:20;;;;;;;48.40;12.20;;;;;;;9.75;95.05;99329.50;7392047;19;20018;-68
2021/12/04 02:14:46;;;;;;;303.27;21.52;;;;;;;9.76;95.49;99331.13;7393646;19;20086;-69
2021/12/04 02:17:13;;;;;;;132.60;14.35;;;;;;;9.78;96.12;99331.78;7393938;19;20078;-68
2021/12/04 02:19:40;;;;;;;39.80;11.68;;;;;;;9.78;96.20;99334.41;7389803;19;20416;-68
2021/12/04 02:22:07;;;;;;;399.92;26.05;;;;;;;9.72;95.81;99327.25;7392170;19;20666;-70
2021/12/04 02:24:34;;;;;;;328.88;22.95;;;;;;;9.75;96.47;99334.75;7395351;19;20048;-70
2021/12/04 02:27:01;;;;;;;43.88;15.43;;;;;;;9.70;96.71;99326.63;7392628;19;20017;-70
2021/12/04 02:29:28;;;;;;;330.33;24.08;;;;;;;9.65;95.90;99328.97;7393944;19;20330;-67
2021/12/04 02:31:57;;;;;;;37.95;12.45;;;;;;;9.60;95.77;99333.97;7393098;19;20481;-69
2021/12/04 02:34:27;;;;;;;53.17;14.80;;;;;;;9.55;95.89;99327.66;7393448;19;20033;-70
2021/12/04 02:36:56;;;;;;;49.20;13.23;;;;;;;9.52;95.84;99313.09;7394590;19;20032;-69
2021/12/04 02:39:25;;;;;;;46.30;13.02;;;;;;;9.50;96.30;99315.06;7392293;19;20030;-70
2021/12/04 02:41:53;;;;;;;102.88;12.88;;;;;;;9.48;96.30;99317.09;7393140;19;20098;-70
2021/12/04 02:44:20;;;;;;;318.80;20.42;;;;;;;9.45;96.39;99313.00;7392136;19;20186;-69
2021/12/04 02:46:47;;;;;;;36.30;9.77;;;;;;;9.40;96.39;99310.09;7395337;19;20011;-69
2021/12/04 02:49:15;;;;;;;43.67;10.15;;;;;;;9.37;95.90;99309.66;7390088;19;20014;-70
2021/12/04 02:51:42;;;;;;;38.97;8.98;;;;;;;9.36;96.25;99308.03;7396734;19;20397;-68
2021/12/04 02:54:11;;;;;;;97.70;9.70;;;;;;;9.36;96.18;99308.03;7394280;19;20014;-67
2021/12/04 02:56:44;;;;;;;177.32;14.52;;;;;;;9.34;96.22;99320.53;7395252;19;20507;-70
2021/12/04 02:59:12;;;;;;;28.50;7.35;;;;;;;9.31;96.57;99313.00;7392084;19;20017;-70
2021/12/04 03:01:41;;;;;;;137.95;11.68;;;;;;;9.31;96.13;99310.38;7396138;19;20010;-70
2021/12/04 03:04:10;;;;;;;136.10;10.85;;;;;;;9.29;96.10;99304.53;7394470;19;20476;-69
2021/12/04 03:06:47;;;;;;;28.45;8.80;;;;;;;9.26;96.48;99310.94;7394776;19;20018;-73
2021/12/04 03:09:15;;;;;;;23.17;7.78;;;;;;;9.22;96.07;99304.44;7392308;19;20491;-65
2021/12/04 03:11:42;;;;;;;217.20;15.07;;;;;;;9.21;96.04;99297.53;7392263;19;20011;-70
2021/12/04 03:14:09;;;;;;;79.13;10.50;;;;;;;9.20;96.00;99287.22;7391793;19;20037;-71
2021/12/04 03:16:38;;;;;;;28.58;8.20;;;;;;;9.18;95.69;99284.81;7394256;19;20020;-66
2021/12/04 03:19:06;;;;;;;25.25;6.95;;;;;;;9.19;95.71;99285.63;7391626;19;20070;-67
2021/12/04 03:21:34;;;;;;;40.05;9.18;;;;;;;9.16;95.57;99273.66;7389902;19;20010;-67
2021/12/04 03:24:04;;;;;;;18.58;6.53;;;;;;;9.13;95.17;99263.53;7392822;19;20069;-69
2021/12/04 03:26:37;;;;;;;238.90;14.15;;;;;;;9.13;95.32;99258.31;7391381;19;20009;-69
2021/12/04 03:29:12;;;;;;;128.70;12.27;;;;;;;9.12;95.44;99251.41;7391021;19;20025;-71
2021/12/04 03:42:42;;;;;;;23.20;7.57;;;;;;;8.91;94.81;99246.09;7393278;19;20031;-69
2021/12/04 03:45:10;;;;;;;32.22;7.93;;;;;;;8.88;94.62;99254.34;7390774;19;20147;-69
2021/12/04 03:47:44;;;;;;;20.48;7.57;;;;;;;8.86;95.10;99257.13;7393703;19;20014;-72
2021/12/04 03:50:13;;;;;;;24.00;6.78;;;;;;;8.85;95.17;99245.00;7392580;19;20331;-68
2021/12/04 03:52:40;;;;;;;190.82;14.50;;;;;;;8.84;95.25;99237.31;7390826;19;20475;-70
2021/12/04 03:55:08;;;;;;;96.20;11.32;;;;;;;8.85;95.64;99233.69;7393467;19;20496;-69
2021/12/04 03:57:36;;;;;;;138.73;13.63;;;;;;;8.83;95.55;99233.09;7392113;19;20094;-71
2021/12/04 04:00:04;;;;;;;28.55;7.72;;;;;;;8.86;95.45;99232.72;7388060;19;20010;-69
2021/12/04 04:02:31;;;;;;;200.35;13.45;;;;;;;8.86;95.57;99241.38;7391885;19;20025;-69
2021/12/04 04:04:58;;;;;;;116.18;11.77;;;;;;;8.87;95.60;99243.03;7391622;19;20018;-68
2021/12/04 04:07:25;;;;;;;62.20;9.45;;;;;;;8.85;95.18;99233.69;7389263;19;20106;-69
2021/12/04 04:09:51;;;;;;;85.65;9.85;;;;;;;8.84;95.24;99238.13;7391213;19;20690;-69
2021/12/04 04:12:18;;;;;;;212.40;13.95;;;;;;;8.79;95.00;99230.00;7389775;19;20006;-69
2021/12/04 04:14:45;;;;;;;203.75;16.95;;;;;;;8.81;95.55;99229.81;7389821;19;20017;-68
2021/12/04 04:17:12;;;;;;;231.60;13.98;;;;;;;8.83;96.27;99227.84;7391330;19;20014;-66
2021/12/04 04:19:39;;;;;;;181.63;13.90;;;;;;;8.84;96.64;99226.81;7389509;19;20032;-67
2021/12/04 04:22:06;;;;;;;28.80;8.55;;;;;;;8.84;96.82;99221.56;7389827;19;20043;-68
2021/12/04 04:24:33;;;;;;;19.33;6.13;;;;;;;8.86;96.34;99225.66;7391523;19;20018;-68
2021/12/04 04:27:01;;;;;;;30.67;6.72;;;;;;;8.81;95.99;99227.19;7389568;19;20040;-69
2021/12/04 04:29:28;;;;;;;19.60;6.15;;;;;;;8.77;95.24;99226.75;7388791;19;20678;-69
2021/12/04 04:31:55;;;;;;;22.38;7.28;;;;;;;8.77;95.06;99231.19;7387613;19;20005;-68
2021/12/04 04:34:35;;;;;;;17.98;6.00;;;;;;;8.77;94.90;99224.13;7389883;19;20020;-69
2021/12/04 05:15:22;;;;;;;21.63;6.93;;;;;;;8.81;94.29;99208.84;7388586;19;20098;-70
2021/12/04 05:20:33;;;;;;;22.38;6.78;;;;;;;8.82;94.58;99213.09;7387705;19;20078;-70
2021/12/04 05:23:00;;;;;;;22.67;6.68;;;;;;;8.83;94.40;99215.53;7389022;19;20014;-69
2021/12/04 05:25:31;;;;;;;18.58;6.43;;;;;;;8.85;93.91;99215.34;7388605;19;20708;-69
2021/12/04 05:27:58;;;;;;;19.90;6.50;;;;;;;8.86;94.11;99211.72;7388017;19;20013;-68
2021/12/04 05:30:25;;;;;;;55.63;10.32;;;;;;;8.87;93.90;99208.94;7386591;19;20015;-69
2021/12/04 05:32:51;;;;;;;22.85;7.97;;;;;;;8.87;94.58;99211.56;7386332;19;20021;-70
2021/12/04 05:35:19;;;;;;;21.60;6.95;;;;;;;8.89;94.90;99220.03;7385390;19;20074;-70
2021/12/04 05:37:46;;;;;;;24.70;7.93;;;;;;;8.92;94.71;99217.06;7387814;19;20014;-68
2021/12/04 05:40:14;;;;;;;19.02;7.15;;;;;;;8.97;94.35;99225.19;7389377;19;20046;-69
2021/12/04 05:42:42;;;;;;;171.00;13.45;;;;;;;9.02;94.95;99224.66;7387371;19;20395;-68
2021/12/04 05:45:17;;;;;;;24.30;8.35;;;;;;;9.02;95.19;99229.91;7384274;19;20082;-68
2021/12/04 05:48:06;;;;;;;21.33;7.80;;;;;;;9.00;94.99;99240.56;7387060;19;20025;-69
2021/12/04 05:55:52;;;;;;;;;;;;;;;9.07;95.29;99231.97;7393230;19;20010;-68
2021/12/04 05:58:31;;;;;;;178.35;11.65;;;;;;;9.10;95.94;99228.97;7397605;19;19935;-71
2021/12/04 06:01:03;;;;;;;191.68;15.48;;;;;;;9.13;96.55;99231.25;7392916;19;20363;-68
2021/12/04 06:03:31;;;;;;;171.00;11.77;;;;;;;9.16;96.70;99236.13;7396326;19;20019;-67
2021/12/04 06:05:58;;;;;;;42.00;9.32;;;;;;;9.17;96.64;99222.00;7392363;19;20024;-69
2021/12/04 06:08:29;;;;;;;47.28;9.43;;;;;;;9.18;96.77;99216.59;7396671;19;20021;-70
2021/12/04 06:10:57;;;;;;;91.95;9.52;;;;;;;9.18;96.83;99219.22;7398094;19;20021;-69
2021/12/04 06:13:24;;;;;;;67.82;9.80;;;;;;;9.16;96.87;99218.56;7393604;19;20074;-70
2021/12/04 06:15:52;;;;;;;16.90;6.18;;;;;;;9.17;97.00;99222.00;7395199;19;20090;-69
2021/12/04 06:18:21;;;;;;;16.00;5.53;;;;;;;9.15;96.68;99235.31;7393906;19;20018;-69
2021/12/04 06:23:34;;;;;;;19.45;6.82;;;;;;;9.12;95.87;99230.44;7394081;19;20388;-70
2021/12/04 06:26:01;;;;;;;15.65;5.72;;;;;;;9.11;95.98;99220.94;7391693;19;20118;-67
2021/12/04 06:28:29;;;;;;;18.75;6.30;;;;;;;9.14;95.79;99225.00;7393483;19;20015;-69
2021/12/04 06:30:59;;;;;;;15.48;5.80;;;;;;;9.13;95.47;99234.69;7392999;19;20015;-67
2021/12/04 06:33:26;;;;;;;48.50;6.18;;;;;;;9.13;95.81;99237.31;7392687;19;20015;-68
2021/12/04 06:35:53;;;;;;;16.23;5.75;;;;;;;9.15;95.74;99237.09;7393872;19;20015;-68
2021/12/04 06:38:21;;;;;;;16.95;6.72;;;;;;;9.18;96.07;99239.38;7397834;19;20014;-67
2021/12/04 06:40:49;;;;;;;16.00;5.38;;;;;;;9.20;96.08;99246.06;7395955;19;20448;-69
2021/12/04 06:43:16;;;;;;;18.73;6.50;;;;;;;9.20;95.80;99232.13;7392899;19;20021;-69
2021/12/04 06:45:47;;;;;;;21.92;8.60;;;;;;;9.21;95.91;99229.31;7392349;19;20015;-68
2021/12/04 06:48:22;;;;;;;14.02;5.15;;;;;;;9.22;95.39;99238.00;7393425;19;20038;-67
2021/12/04 06:56:08;;;;;;;14.82;5.38;;;;;;;9.25;95.52;99248.94;7395120;19;20022;-67
2021/12/04 06:58:39;;;;;;;17.52;6.53;;;;;;;9.27;95.44;99236.47;7395586;19;20029;-70
2021/12/04 07:01:10;;;;;;;15.85;5.80;;;;;;;9.28;95.11;99232.84;7395965;19;20010;-69
2021/12/04 07:03:38;;;;;;;108.53;13.70;;;;;;;9.26;95.43;99234.03;7392374;19;20018;-67
2021/12/04 07:06:07;;;;;;;16.33;6.07;;;;;;;9.29;95.62;99244.16;7389637;19;20081;-68
2021/12/04 07:08:34;;;;;;;31.45;7.78;;;;;;;9.29;95.29;99252.84;7392017;19;20015;-70
2021/12/04 07:11:04;;;;;;;14.45;6.47;;;;;;;9.28;95.23;99253.84;7395600;19;20408;-70
2021/12/04 07:13:32;;;;;;;27.88;7.65;;;;;;;9.29;94.94;99255.47;7391654;19;20047;-67
2021/12/04 07:16:04;;;;;;;100.75;9.73;;;;;;;9.29;94.70;99265.97;7395469;19;20030;-69
2021/12/04 07:18:33;;;;;;;15.82;5.55;;;;;;;9.28;94.52;99269.59;7390116;19;20074;-67
2021/12/04 07:21:00;;;;;;;13.77;4.60;;;;;;;9.27;94.45;99262.72;7391171;19;20033;-70
2021/12/04 07:23:26;;;;;;;11.82;4.78;;;;;;;9.29;94.56;99271.22;7394538;19;20018;-67
2021/12/04 07:25:54;;;;;;;14.35;4.78;;;;;;;9.30;94.25;99283.31;7390063;19;20690;-67
2021/12/04 07:28:21;;;;;;;10.18;4.15;;;;;;;9.28;94.15;99268.78;7391555;19;20011;-66
2021/12/04 07:30:49;;;;;;;11.38;4.47;;;;;;;9.28;94.26;99269.59;7390572;19;20030;-68
2021/12/04 07:33:16;;;;;;;10.93;4.22;;;;;;;9.29;93.92;99276.47;7391104;19;20006;-68
2021/12/04 07:35:42;;;;;;;14.27;5.50;;;;;;;9.28;93.83;99285.34;7391294;19;20575;-67
2021/12/04 07:38:10;;;;;;;22.35;5.45;;;;;;;9.30;93.99;99298.25;7390624;19;20132;-67
2021/12/04 07:40:38;;;;;;;10.02;3.70;;;;;;;9.29;93.94;99302.72;7390436;19;20110;-69
2021/12/04 07:43:05;;;;;;;8.73;3.97;;;;;;;9.31;93.93;99305.13;7392276;19;20089;-67
2021/12/04 07:45:32;;;;;;;9.30;3.75;;;;;;;9.31;93.48;99305.13;7390797;19;20007;-69
2021/12/04 07:47:59;;;;;;;7.00;2.97;;;;;;;9.30;93.29;99306.13;7388790;19;20014;-69
2021/12/04 07:50:27;;;;;;;8.88;3.25;;;;;;;9.29;93.03;99302.72;7389413;19;20012;-70
2021/12/04 07:52:54;;;;;;;6.97;3.17;;;;;;;9.29;93.03;99305.34;7394727;19;20014;-67
2021/12/04 07:55:20;;;;;;;6.45;2.78;;;;;;;9.29;92.78;99307.16;7394143;19;20011;-67
2021/12/04 07:57:48;;;;;;;8.02;3.40;;;;;;;9.26;92.75;99318.00;7392883;19;20014;-69
2021/12/04 08:00:17;;;;;;;31.40;5.68;;;;;;;9.24;92.83;99322.63;7390310;19;20007;-69
2021/12/04 08:02:44;;;;;;;14.60;4.47;;;;;;;9.22;92.74;99335.91;7395068;19;20085;-69
2021/12/04 08:05:12;;;;;;;8.23;2.92;;;;;;;9.21;92.67;99339.53;7393015;19;20399;-69
2021/12/04 08:07:39;;;;;;;13.07;5.25;;;;;;;9.22;92.71;99337.72;7393916;19;20006;-69
2021/12/04 08:10:08;;;;;;;19.58;4.07;;;;;;;9.23;92.57;99340.19;7391692;19;20018;-69
2021/12/04 08:12:36;;;;;;;7.57;3.40;;;;;;;9.21;92.75;99336.91;7388630;19;20011;-71
2021/12/04 08:15:08;;;;;;;6.57;2.35;;;;;;;9.24;91.89;99341.81;7390493;19;20015;-70
2021/12/04 08:17:35;;;;;;;6.80;2.30;;;;;;;9.25;91.89;99342.59;7387666;19;20367;-69
2021/12/04 08:20:04;;;;;;;5.00;1.52;;;;;;;9.22;91.39;99340.34;7393672;19;20018;-70
2021/12/04 08:22:34;;;;;;;5.63;2.00;;;;;;;9.22;91.46;99356.09;7387866;19;20545;-70
2021/12/04 08:25:01;;;;;;;6.53;2.38;;;;;;;9.21;91.36;99364.97;7392799;19;20445;-71
2021/12/04 08:27:27;;;;;;;7.63;1.80;;;;;;;9.22;91.36;99364.78;7387916;19;20555;-69
2021/12/04 08:29:54;;;;;;;11.65;4.43;;;;;;;9.20;91.08;99365.94;7390613;19;20014;-71
2021/12/04 08:32:23;;;;;;;5.90;2.10;;;;;;;9.16;90.68;99369.94;7392211;19;20317;-70
2021/12/04 08:34:51;;;;;;;8.27;2.65;;;;;;;9.17;91.06;99359.25;7386811;19;20313;-67
2021/12/04 08:37:21;;;;;;;10.88;3.67;;;;;;;9.17;90.91;99366.31;7386237;19;20495;-69
2021/12/04 08:39:49;;;;;;;9.10;2.72;;;;;;;9.14;90.47;99366.69;7390513;19;20089;-71
2021/12/04 08:42:16;;;;;;;7.03;2.88;;;;;;;9.15;90.42;99368.28;7387166;19;20014;-70
2021/12/04 08:44:43;;;;;;;7.47;2.53;;;;;;;9.15;90.12;99371.72;7386777;19;20014;-71
2021/12/04 08:47:10;;;;;;;6.47;2.40;;;;;;;9.12;90.33;99376.53;7390476;19;20087;-68
2021/12/04 08:49:37;;;;;;;7.47;2.45;;;;;;;9.10;89.68;99381.94;7390389;19;20539;-69
2021/12/04 08:52:05;;;;;;;27.88;6.38;;;;;;;9.07;89.40;99376.25;7389057;19;20006;-66
2021/12/04 08:54:32;;;;;;;14.68;4.82;;;;;;;9.07;89.98;99384.13;7390066;19;20417;-70
2021/12/04 08:56:59;;;;;;;6.75;1.45;;;;;;;9.05;89.89;99389.53;7392443;19;20007;-68
2021/12/04 08:59:27;;;;;;;6.85;2.35;;;;;;;9.02;89.62;99388.09;7388601;19;20019;-70
2021/12/04 09:01:54;;;;;;;7.30;1.70;;;;;;;8.99;89.55;99385.00;7387967;19;20015;-68
2021/12/04 09:04:25;;;;;;;5.68;1.00;;;;;;;8.97;89.15;99390.44;7389509;19;20014;-70
2021/12/04 09:06:54;;;;;;;5.43;1.63;;;;;;;8.93;89.04;99389.19;7386309;19;20019;-68
2021/12/04 09:09:22;;;;;;;12.00;2.67;;;;;;;8.95;89.15;99392.44;7388049;19;20031;-68
2021/12/04 09:12:11;;;;;;;9.05;2.95;;;;;;;8.97;89.04;99398.31;7388550;19;20364;-69
2021/12/04 09:14:40;;;;;;;6.05;1.02;;;;;;;8.92;88.18;99405.91;7387962;19;20011;-69
2021/12/04 09:17:10;;;;;;;3.80;0.95;;;;;;;8.92;87.95;99408.53;7387864;19;20354;-70
2021/12/04 09:19:37;;;;;;;7.70;1.42;;;;;;;8.95;87.83;99412.59;7388128;19;20010;-71
2021/12/04 09:22:07;;;;;;;8.20;0.80;;;;;;;8.95;87.18;99413.41;7385832;19;20017;-68
2021/12/04 09:24:58;;;;;;;6.55;2.10;;;;;;;8.96;86.83;99416.84;7389616;19;20026;-70
2021/12/04 09:28:01;;;;;;;7.45;2.20;;;;;;;8.95;87.36;99412.59;7385706;19;20030;-68
2021/12/04 10:23:44;;;;;;;6.63;0.73;;;;;;;9.08;81.47;99436.44;7392855;19;20343;-68
2021/12/04 10:34:34;;;;;;;5.10;0.22;;;;;;;9.22;80.10;99438.25;7389540;19;20014;-70
2021/12/04 10:37:24;;;;;;;11.40;0.98;;;;;;;9.24;79.33;99440.72;7390355;19;20046;-71
2021/12/04 10:39:57;;;;;;;4.53;0.28;;;;;;;9.27;78.06;99437.72;7390649;19;20456;-70
2021/12/04 10:42:32;;;;;;;8.10;0.80;;;;;;;9.27;76.65;99446.41;7392056;19;20070;-68
2021/12/04 10:44:59;;;;;;;4.53;0.77;;;;;;;9.28;77.91;99437.56;7393571;19;20014;-68
2021/12/04 10:47:27;;;;;;;6.55;1.08;;;;;;;9.28;77.41;99434.09;7388651;19;20014;-69
2021/12/04 10:52:59;;;;;;;6.88;0.40;;;;;;;9.34;78.62;99436.03;7388322;19;20010;-70
2021/12/04 11:01:37;;;;;;;2.10;0.35;;;;;;;9.37;76.50;99438.28;7391062;19;20090;-70
2021/12/04 11:04:24;;;;;;;;;;;;;;;9.32;76.11;99441.44;7393320;19;20388;-71
2021/12/04 11:42:57;;;;;;;3.22;0.20;;;;;;;9.52;70.92;99397.09;7390852;19;20014;-69
2021/12/04 11:45:29;;;;;;;4.47;0.30;;;;;;;9.56;73.31;99402.78;7388667;19;20024;-71
2021/12/04 11:47:59;;;;;;;6.55;0.43;;;;;;;9.55;71.60;99403.81;7388662;19;20022;-67
2021/12/04 11:50:30;;;;;;;4.22;0.30;;;;;;;9.51;70.85;99405.97;7389156;19;20030;-69
2021/12/04 11:53:04;;;;;;;4.57;0.40;;;;;;;9.54;73.07;99405.63;7386897;19;20017;-68
2021/12/04 11:55:34;;;;;;;3.53;0.30;;;;;;;9.52;70.30;99402.34;7389803;19;20014;-67
2021/12/04 11:58:02;;;;;;;6.00;0.30;;;;;;;9.52;69.73;99401.53;7390603;19;20741;-71
2021/12/04 12:00:35;;;;;;;3.13;0.22;;;;;;;9.50;70.15;99395.66;7389404;19;20025;-70
2021/12/04 12:03:18;;;;;;;4.78;0.40;;;;;;;9.53;71.02;99397.91;7389148;19;20763;-70
2021/12/04 12:05:58;;;;;;;3.33;0.20;;;;;;;9.53;70.70;99396.09;7369602;19;20014;-74
2021/12/04 12:08:29;;;;;;;6.78;0.35;;;;;;;9.57;69.57;99400.00;7390465;19;20014;-70
2021/12/04 12:11:03;;;;;;;2.60;0.28;;;;;;;9.58;70.07;99403.44;7391138;19;20015;-69
2021/12/04 12:13:40;;;;;;;4.97;0.40;;;;;;;9.60;70.58;99391.75;7391067;19;20010;-68
2021/12/04 12:16:13;;;;;;;6.47;1.00;;;;;;;9.62;70.37;99387.13;7387894;19;20016;-71
2021/12/04 12:19:00;;;;;;;1.98;0.20;;;;;;;9.60;69.61;99397.00;7390183;19;20007;-70
2021/12/04 12:21:53;;;;;;;4.22;0.40;;;;;;;9.61;69.76;99385.50;7389714;19;20021;-69
2021/12/04 12:27:22;;;;;;;3.83;0.40;;;;;;;9.69;71.36;99390.66;7388245;19;20010;-68
2021/12/04 12:32:38;;;;;;;5.40;0.32;;;;;;;9.70;70.63;99397.53;7389998;19;20500;-70
2021/12/04 12:37:35;;;;;;;5.15;1.08;;;;;;;9.72;70.83;99392.09;7388979;19;20010;-70
2021/12/04 12:40:09;;;;;;;7.28;0.52;;;;;;;9.75;71.60;99379.41;7389582;19;20074;-68
2021/12/04 12:42:38;;;;;;;8.50;1.17;;;;;;;9.91;76.91;99365.25;7389367;19;20011;-66
2021/12/04 12:45:11;;;;;;;9.27;0.80;;;;;;;10.09;80.76;99375.38;7388185;19;20106;-71
2021/12/04 12:47:48;;;;;;;3.92;0.50;;;;;;;10.21;77.74;99382.59;7387597;19;20027;-67
2021/12/04 12:50:22;;;;;;;6.88;0.30;;;;;;;10.31;73.12;99392.00;7388541;19;20504;-70
2021/12/04 12:52:59;;;;;;;4.88;0.77;;;;;;;10.27;67.50;99388.91;7388790;19;20027;-69
2021/12/04 12:55:32;;;;;;;2.72;0.30;;;;;;;10.27;68.40;99402.88;7390878;19;20038;-68
2021/12/04 12:58:11;;;;;;;5.18;0.45;;;;;;;10.23;66.63;99412.16;7385461;19;20077;-68
2021/12/04 13:13:27;;;;;;;4.15;0.50;;;;;;;10.18;69.22;99390.88;7394791;19;20011;-65
2021/12/04 13:16:03;;;;;;;3.70;0.45;;;;;;;10.17;68.91;99393.66;7393351;19;20048;-68
2021/12/04 13:18:32;;;;;;;7.35;0.65;;;;;;;10.13;66.91;99381.88;7395750;19;20219;-68
2021/12/04 13:21:05;;;;;;;3.78;0.50;;;;;;;10.16;68.83;99390.22;7394092;19;20029;-69
2021/12/04 13:23:33;;;;;;;4.80;0.45;;;;;;;10.18;68.37;99390.03;7392999;19;20014;-68
2021/12/04 13:26:05;;;;;;;6.15;0.52;;;;;;;10.20;67.21;99388.88;7391679;19;20038;-70
2021/12/04 13:28:35;;;;;;;3.50;0.28;;;;;;;10.26;67.05;99379.41;7390606;19;20168;-69
2021/12/04 13:31:03;;;;;;;5.75;0.40;;;;;;;10.28;68.34;99383.50;7396244;19;20010;-68
2021/12/04 13:33:33;;;;;;;5.80;0.50;;;;;;;10.28;67.78;99383.50;7392582;19;20443;-71
2021/12/04 13:36:00;;;;;;;6.57;0.22;;;;;;;10.34;67.37;99386.38;7393808;19;20086;-68
2021/12/04 13:38:28;;;;;;;3.28;0.30;;;;;;;10.31;65.70;99384.13;7394447;19;20475;-67
2021/12/04 13:40:57;;;;;;;5.28;0.35;;;;;;;10.29;65.90;99377.22;7395043;19;20011;-68
2021/12/04 13:43:24;;;;;;;3.67;0.20;;;;;;;10.31;65.88;99376.25;7393170;19;20074;-69
2021/12/04 13:45:56;;;;;;;6.40;0.77;;;;;;;10.28;64.71;99378.22;7390579;19;20040;-70
2021/12/04 13:48:24;;;;;;;4.00;0.50;;;;;;;10.36;66.52;99371.25;7389305;19;20019;-69
2021/12/04 13:50:52;;;;;;;3.08;0.25;;;;;;;10.41;65.95;99368.84;7389469;19;20017;-67
2021/12/04 13:53:25;;;;;;;6.35;0.75;;;;;;;10.43;66.02;99364.22;7394739;19;20017;-71
2021/12/04 13:55:58;;;;;;;6.07;0.40;;;;;;;10.47;66.54;99371.53;7391379;19;20046;-68
2021/12/04 13:58:27;;;;;;;3.08;0.20;;;;;;;10.53;67.40;99372.59;7395287;19;20014;-68
2021/12/04 14:00:55;;;;;;;5.10;0.40;;;;;;;10.52;66.02;99379.66;7391369;19;20018;-70
2021/12/04 14:03:28;;;;;;;4.32;1.08;;;;;;;10.53;65.21;99380.47;7392238;19;20030;-70
2021/12/04 14:05:55;;;;;;;4.55;0.63;;;;;;;10.52;65.09;99368.34;7392888;19;20070;-66
2021/12/04 14:08:22;;;;;;;5.97;0.40;;;;;;;10.49;64.12;99379.25;7390545;19;20007;-68
2021/12/04 14:10:51;;;;;;;3.58;0.30;;;;;;;10.51;65.53;99378.06;7392113;19;20171;-68
2021/12/04 14:13:23;;;;;;;3.97;0.30;;;;;;;10.50;65.19;99384.31;7394762;19;20010;-70
2021/12/04 14:15:57;;;;;;;3.22;0.45;;;;;;;10.50;64.61;99383.50;7388199;19;20074;-70
2021/12/04 14:18:28;;;;;;;2.28;0.20;;;;;;;10.49;63.64;99379.25;7388461;19;20018;-69
2021/12/04 14:21:01;;;;;;;4.78;0.30;;;;;;;10.46;62.64;99371.75;7385775;19;20026;-69
2021/12/04 14:23:32;;;;;;;4.35;0.47;;;;;;;10.41;64.87;99379.38;7393488;19;20025;-70
2021/12/04 14:26:03;;;;;;;3.55;0.50;;;;;;;10.41;65.37;99374.94;7388425;19;20334;-70
2021/12/04 14:28:38;;;;;;;3.60;0.30;;;;;;;10.41;65.94;99377.56;7389452;19;20015;-69
2021/12/04 14:31:05;;;;;;;4.50;0.30;;;;;;;10.40;65.56;99373.31;7387199;19;20019;-69
2021/12/04 14:33:38;;;;;;;4.97;0.25;;;;;;;10.34;64.29;99376.66;7388904;19;20028;-68
2021/12/04 14:36:06;;;;;;;4.40;0.30;;;;;;;10.33;64.70;99379.47;7390082;19;20479;-66
2021/12/04 14:38:33;;;;;;;8.18;0.45;;;;;;;10.28;65.68;99380.03;7389712;19;20034;-67
2021/12/04 14:41:06;;;;;;;2.30;0.30;;;;;;;10.26;65.56;99376.78;7388873;19;20025;-68
2021/12/04 14:43:36;;;;;;;;;;;;;;;10.23;64.85;99383.22;7393153;19;20577;-70
2021/12/04 14:46:10;;;;;;;4.35;0.30;;;;;;;10.16;64.25;99377.09;7392200;19;19923;-70
2021/12/04 14:48:43;;;;;;;5.32;0.38;;;;;;;10.23;69.87;99379.78;7386787;19;20010;-69
2021/12/04 14:51:15;;;;;;;7.30;0.60;;;;;;;10.27;70.85;99373.16;7392000;19;20039;-69
2021/12/04 14:53:48;;;;;;;2.90;0.52;;;;;;;10.31;68.49;99386.75;7389446;19;20015;-72
2021/12/04 14:56:19;;;;;;;3.40;0.35;;;;;;;10.32;67.46;99380.47;7392380;19;20023;-69
2021/12/04 14:58:50;;;;;;;2.30;0.30;;;;;;;10.36;67.19;99394.91;7390163;19;20051;-67
2021/12/04 15:01:21;;;;;;;2.70;0.20;;;;;;;10.33;64.87;99393.44;7387280;19;20016;-71
2021/12/04 15:03:56;;;;;;;2.38;0.30;;;;;;;10.35;63.96;99377.50;7391101;19;20035;-70
2021/12/04 15:06:26;;;;;;;7.95;1.98;;;;;;;10.35;64.74;99385.38;7392130;19;20159;-69
2021/12/04 15:09:00;;;;;;;4.05;0.60;;;;;;;10.33;65.24;99393.44;7389308;19;20102;-69
2021/12/04 15:11:32;;;;;;;8.68;0.85;;;;;;;10.35;68.88;99386.19;7387203;19;20101;-67